Time;durP1;ratioP1;P1;durP2;ratioP2;P2;SDS_P1;SDS_P2;PMS_P1;PMS_P2;Temp;Humidity;BMP_temperature;BMP_pressure;BME280_temperature;BME280_humidity;BME280_pressure;Samples;Min_cycle;Max_cycle;Signal;HPM_P1;HPM_P2
2023/03/24 00:02:22;;;;;;;6.90;5.20;;;;;;;;;;5052725;28;20585;-67
2023/03/24 00:04:52;;;;;;;4.67;4.27;;;;;;;;;;5054137;28;20614;-65
2023/03/24 00:07:22;;;;;;;6.10;4.97;;;;;;;;;;5054823;28;20972;-64
2023/03/24 00:09:50;;;;;;;6.77;4.40;;;;;;;;;;5055732;28;20611;-65
2023/03/24 00:12:19;;;;;;;4.70;4.30;;;;;;;;;;5054827;28;20598;-65
2023/03/24 00:14:47;;;;;;;5.03;4.53;;;;;;;;;;5055312;28;20613;-65
2023/03/24 00:17:16;;;;;;;4.87;4.47;;;;;;;;;;5054501;28;20997;-66
2023/03/24 00:19:45;;;;;;;5.63;5.00;;;;;;;;;;5055441;28;20586;-65
2023/03/24 00:22:17;;;;;;;5.70;4.63;;;;;;;;;;5054959;28;20619;-65
2023/03/24 00:24:45;;;;;;;4.67;4.23;;;;;;;;;;5054114;28;20554;-65
2023/03/24 00:27:14;;;;;;;6.33;5.03;;;;;;;;;;5052026;28;20665;-65
2023/03/24 00:29:42;;;;;;;4.77;4.37;;;;;;;;;;5064177;28;20657;-65
2023/03/24 00:32:11;;;;;;;8.00;5.30;;;;;;;;;;5067829;28;20601;-65
2023/03/24 00:34:39;;;;;;;4.10;3.77;;;;;;;;;;5055025;28;20607;-65
2023/03/24 00:37:07;;;;;;;5.80;5.20;;;;;;;;;;5053204;28;20589;-65
2023/03/24 00:39:37;;;;;;;5.30;4.87;;;;;;;;;;5055116;28;20618;-65
2023/03/24 00:42:06;;;;;;;5.40;4.97;;;;;;;;;;5054210;28;20625;-64
2023/03/24 00:44:34;;;;;;;6.43;5.30;;;;;;;;;;5054421;28;21026;-64
2023/03/24 00:47:02;;;;;;;6.33;5.67;;;;;;;;;;5052546;28;20653;-65
2023/03/24 00:49:44;;;;;;;4.83;4.23;;;;;;;;;;5053612;28;20986;-64
2023/03/24 00:52:14;;;;;;;11.80;8.03;;;;;;;;;;5054146;28;20690;-64
2023/03/24 00:54:45;;;;;;;15.10;6.90;;;;;;;;;;5053496;28;21003;-64
2023/03/24 00:57:14;;;;;;;11.53;6.03;;;;;;;;;;5052489;28;20927;-64
2023/03/24 00:59:47;;;;;;;16.53;8.10;;;;;;;;;;5054410;28;21249;-64
2023/03/24 01:02:17;;;;;;;9.83;7.50;;;;;;;;;;5052768;28;20644;-65
2023/03/24 01:04:46;;;;;;;15.60;9.90;;;;;;;;;;5050920;28;20722;-65
2023/03/24 01:07:16;;;;;;;14.47;9.43;;;;;;;;;;5049067;28;21204;-65
2023/03/24 01:09:50;;;;;;;6.80;5.93;;;;;;;;;;5041543;28;20599;-65
2023/03/24 01:12:20;;;;;;;8.80;7.30;;;;;;;;;;5052602;28;20618;-64
2023/03/24 01:14:48;;;;;;;5.83;5.30;;;;;;;;;;5053898;28;20992;-64
2023/03/24 01:17:18;;;;;;;7.67;6.00;;;;;;;;;;5053165;28;20625;-64
2023/03/24 01:19:46;;;;;;;13.70;5.87;;;;;;;;;;5053867;28;20949;-64
2023/03/24 01:22:15;;;;;;;7.10;5.83;;;;;;;;;;5052936;28;20619;-64
2023/03/24 01:24:43;;;;;;;6.87;5.40;;;;;;;;;;5054044;28;20611;-64
2023/03/24 01:27:13;;;;;;;6.53;5.10;;;;;;;;;;5053444;28;20619;-64
2023/03/24 01:29:42;;;;;;;9.57;5.30;;;;;;;;;;5053273;28;21198;-64
2023/03/24 01:32:10;;;;;;;5.70;4.60;;;;;;;;;;5053165;28;20615;-64
2023/03/24 01:34:38;;;;;;;6.03;5.43;;;;;;;;;;5053576;28;21199;-65
2023/03/24 01:37:07;;;;;;;5.77;5.37;;;;;;;;;;5053190;28;20594;-65
2023/03/24 01:39:35;;;;;;;6.10;5.50;;;;;;;;;;5053742;28;20596;-64
2023/03/24 01:42:03;;;;;;;6.10;5.00;;;;;;;;;;5050039;28;20585;-64
2023/03/24 01:44:34;;;;;;;9.33;4.97;;;;;;;;;;5043278;28;20622;-65
2023/03/24 01:47:03;;;;;;;5.80;5.30;;;;;;;;;;5051746;28;20625;-64
2023/03/24 01:49:33;;;;;;;5.33;4.70;;;;;;;;;;5038559;28;20712;-65
2023/03/24 01:52:02;;;;;;;12.43;5.40;;;;;;;;;;5052928;28;20623;-64
2023/03/24 01:54:32;;;;;;;6.23;5.37;;;;;;;;;;5043296;28;20707;-65
2023/03/24 01:57:05;;;;;;;4.83;4.43;;;;;;;;;;5051843;28;20975;-64
2023/03/24 01:59:38;;;;;;;5.77;5.20;;;;;;;;;;5052490;28;20596;-64
2023/03/24 02:02:33;;;;;;;8.43;4.80;;;;;;;;;;5041819;28;20920;-65
2023/03/24 02:05:04;;;;;;;5.17;4.77;;;;;;;;;;5044222;28;21147;-66
2023/03/24 02:07:41;;;;;;;5.43;4.93;;;;;;;;;;5039950;28;20633;-65
2023/03/24 02:10:12;;;;;;;5.23;4.63;;;;;;;;;;5036038;28;21269;-65
2023/03/24 02:12:40;;;;;;;7.20;4.67;;;;;;;;;;5041883;28;20590;-65
2023/03/24 02:15:11;;;;;;;5.07;4.57;;;;;;;;;;5039360;28;20598;-64
2023/03/24 02:17:48;;;;;;;8.57;4.40;;;;;;;;;;5031998;28;21016;-65
2023/03/24 02:20:37;;;;;;;5.50;4.20;;;;;;;;;;5032514;28;20613;-66
2023/03/24 02:23:18;;;;;;;4.77;4.37;;;;;;;;;;5011243;28;20606;-65
2023/03/24 02:26:10;;;;;;;6.50;4.70;;;;;;;;;;5037964;28;20600;-65
2023/03/24 02:28:43;;;;;;;7.15;4.53;;;;;;;;;;5032520;28;20646;-65
2023/03/24 02:31:23;;;;;;;5.10;4.70;;;;;;;;;;5039783;28;20601;-65
2023/03/24 02:34:06;;;;;;;4.17;3.87;;;;;;;;;;5050535;28;20192;-65
2023/03/24 02:36:53;;;;;;;6.27;3.97;;;;;;;;;;5027711;28;20632;-65
2023/03/24 02:39:51;;;;;;;5.30;4.77;;;;;;;;;;5006442;28;20631;-65
2023/03/24 02:42:24;;;;;;;4.47;4.07;;;;;;;;;;5051092;28;20599;-65
2023/03/24 02:44:57;;;;;;;4.55;4.15;;;;;;;;;;5051111;28;20220;-65
2023/03/24 02:47:29;;;;;;;4.35;4.05;;;;;;;;;;5050959;28;20210;-65
2023/03/24 02:50:01;;;;;;;7.50;4.20;;;;;;;;;;5050815;28;20205;-65
2023/03/24 02:52:32;;;;;;;5.10;4.10;;;;;;;;;;5050730;28;20942;-64
2023/03/24 02:55:04;;;;;;;4.30;3.80;;;;;;;;;;5052033;28;20609;-64
2023/03/24 02:57:36;;;;;;;4.00;3.70;;;;;;;;;;5050427;28;20621;-64
2023/03/24 03:00:40;;;;;;;4.35;4.05;;;;;;;;;;5051760;28;20208;-64
2023/03/24 03:03:10;;;;;;;5.20;4.18;;;;;;;;;;5049884;28;20193;-64
2023/03/24 03:05:41;;;;;;;4.60;4.23;;;;;;;;;;5050817;28;20212;-64
2023/03/24 03:08:10;;;;;;;4.07;3.33;;;;;;;;;;5051961;28;20633;-65
2023/03/24 03:10:40;;;;;;;3.57;3.30;;;;;;;;;;5052078;28;20597;-65
2023/03/24 03:13:11;;;;;;;5.60;3.90;;;;;;;;;;5055790;28;20585;-65
2023/03/24 03:15:41;;;;;;;4.07;3.67;;;;;;;;;;5055669;28;21411;-65
2023/03/24 03:18:13;;;;;;;4.10;3.80;;;;;;;;;;5054935;28;20640;-65
2023/03/24 03:20:49;;;;;;;4.30;4.00;;;;;;;;;;5055640;28;20587;-65
2023/03/24 03:23:19;;;;;;;4.40;3.70;;;;;;;;;;5055772;28;20922;-65
2023/03/24 03:25:50;;;;;;;7.30;4.23;;;;;;;;;;5054572;28;20565;-66
2023/03/24 03:28:22;;;;;;;5.70;4.50;;;;;;;;;;5055156;28;20631;-65
2023/03/24 03:30:55;;;;;;;3.57;3.27;;;;;;;;;;5054530;28;20594;-65
2023/03/24 03:33:25;;;;;;;4.30;3.90;;;;;;;;;;5054623;28;20599;-66
2023/03/24 03:35:56;;;;;;;3.80;3.45;;;;;;;;;;5055886;28;20583;-65
2023/03/24 03:38:27;;;;;;;5.20;3.33;;;;;;;;;;5055613;28;20648;-65
2023/03/24 03:40:58;;;;;;;4.50;3.20;;;;;;;;;;5054135;28;21109;-65
2023/03/24 03:43:32;;;;;;;3.87;3.57;;;;;;;;;;5054088;28;20596;-66
2023/03/24 03:46:01;;;;;;;3.50;3.30;;;;;;;;;;5054431;28;20609;-65
2023/03/24 03:48:35;;;;;;;4.70;3.60;;;;;;;;;;5054395;28;20991;-65
2023/03/24 03:51:03;;;;;;;4.00;3.00;;;;;;;;;;5055264;28;20633;-66
2023/03/24 03:53:34;;;;;;;2.93;2.73;;;;;;;;;;5054498;28;20612;-65
2023/03/24 03:56:03;;;;;;;5.07;3.30;;;;;;;;;;5054516;28;20577;-65
2023/03/24 03:58:38;;;;;;;6.27;3.10;;;;;;;;;;5054239;28;20583;-65
2023/03/24 04:01:06;;;;;;;7.27;3.40;;;;;;;;;;5055183;28;20583;-65
2023/03/24 04:03:48;;;;;;;3.50;3.27;;;;;;;;;;5054097;28;21145;-65
2023/03/24 04:06:24;;;;;;;4.00;3.47;;;;;;;;;;5053121;28;20564;-65
2023/03/24 04:08:55;;;;;;;4.33;3.60;;;;;;;;;;5050039;28;20636;-65
2023/03/24 04:11:45;;;;;;;4.70;4.30;;;;;;;;;;5047015;28;20590;-66
2023/03/24 04:14:41;;;;;;;6.70;5.50;;;;;;;;;;5054687;28;20653;-66
2023/03/24 04:17:38;;;;;;;6.87;4.80;;;;;;;;;;5044059;28;21004;-65
2023/03/24 04:20:11;;;;;;;7.07;6.37;;;;;;;;;;5053602;28;20550;-66
2023/03/24 04:22:47;;;;;;;6.27;5.50;;;;;;;;;;5053903;28;20557;-66
2023/03/24 04:25:22;;;;;;;7.57;6.77;;;;;;;;;;5052839;28;21142;-66
2023/03/24 04:27:55;;;;;;;7.30;6.70;;;;;;;;;;5053380;28;20602;-65
2023/03/24 04:30:29;;;;;;;7.00;6.40;;;;;;;;;;5053965;28;20658;-65
2023/03/24 04:32:59;;;;;;;8.57;7.77;;;;;;;;;;5053650;28;20554;-65
2023/03/24 04:35:31;;;;;;;8.73;7.93;;;;;;;;;;5053293;28;20583;-65
2023/03/24 04:38:16;;;;;;;8.27;6.87;;;;;;;;;;5053024;28;21129;-65
2023/03/24 04:40:48;;;;;;;8.70;7.77;;;;;;;;;;5053112;28;20627;-65
2023/03/24 04:43:19;;;;;;;6.90;6.30;;;;;;;;;;5053194;28;21113;-66
2023/03/24 04:45:49;;;;;;;9.00;6.47;;;;;;;;;;5052701;28;21016;-65
2023/03/24 04:48:31;;;;;;;6.20;5.63;;;;;;;;;;5053145;28;20549;-66
2023/03/24 04:51:09;;;;;;;7.63;6.13;;;;;;;;;;5053185;28;20561;-66
2023/03/24 04:53:54;;;;;;;7.10;6.50;;;;;;;;;;5053234;28;20584;-65
2023/03/24 04:56:29;;;;;;;6.80;6.20;;;;;;;;;;5052760;28;20586;-66
2023/03/24 04:59:05;;;;;;;6.73;6.10;;;;;;;;;;5052943;28;20586;-66
2023/03/24 05:01:36;;;;;;;6.67;6.10;;;;;;;;;;5052327;28;20585;-66
2023/03/24 05:04:35;;;;;;;6.00;5.60;;;;;;;;;;5051655;28;20649;-66
2023/03/24 05:07:10;;;;;;;6.40;5.90;;;;;;;;;;5052744;28;20579;-66
2023/03/24 05:09:39;;;;;;;7.47;6.53;;;;;;;;;;5052436;28;20686;-66
2023/03/24 05:12:07;;;;;;;11.40;7.10;;;;;;;;;;5052679;28;20611;-66
2023/03/24 05:14:50;;;;;;;7.90;7.30;;;;;;;;;;5052452;28;21117;-66
2023/03/24 05:17:20;;;;;;;9.13;8.17;;;;;;;;;;5048467;28;20742;-66
2023/03/24 05:19:48;;;;;;;8.60;7.43;;;;;;;;;;5033453;28;20589;-66
2023/03/24 05:22:16;;;;;;;9.10;8.20;;;;;;;;;;5040462;28;20567;-66
2023/03/24 05:24:44;;;;;;;11.73;10.30;;;;;;;;;;5053708;28;20615;-65
2023/03/24 05:27:12;;;;;;;13.50;11.00;;;;;;;;;;5052227;28;20605;-66
2023/03/24 05:29:40;;;;;;;12.48;11.35;;;;;;;;;;5051736;28;20648;-66
2023/03/24 05:32:12;;;;;;;17.55;12.00;;;;;;;;;;5052473;28;20261;-66
2023/03/24 05:34:41;;;;;;;14.17;11.40;;;;;;;;;;5051333;28;20197;-65
2023/03/24 05:37:16;;;;;;;16.87;12.83;;;;;;;;;;5052160;28;20583;-65
2023/03/24 05:39:48;;;;;;;13.90;11.67;;;;;;;;;;5051892;28;20554;-66
2023/03/24 05:42:51;;;;;;;13.70;12.32;;;;;;;;;;5052695;28;21069;-65
2023/03/24 05:45:20;;;;;;;13.70;12.30;;;;;;;;;;5051546;28;20243;-66
2023/03/24 05:47:50;;;;;;;13.27;11.77;;;;;;;;;;5051593;28;20970;-66
2023/03/24 05:50:23;;;;;;;15.60;11.77;;;;;;;;;;5051368;28;20658;-66
2023/03/24 05:52:52;;;;;;;13.30;10.97;;;;;;;;;;5051289;28;20594;-66
2023/03/24 05:55:47;;;;;;;12.10;11.00;;;;;;;;;;5045659;28;20638;-66
2023/03/24 05:58:38;;;;;;;16.13;12.40;;;;;;;;;;5051780;28;21128;-66
2023/03/24 06:01:10;;;;;;;14.40;11.27;;;;;;;;;;5048920;28;20599;-66
2023/03/24 06:03:39;;;;;;;13.73;11.43;;;;;;;;;;5039485;28;20578;-66
2023/03/24 06:06:15;;;;;;;12.87;11.57;;;;;;;;;;5034199;28;20579;-65
2023/03/24 06:08:44;;;;;;;13.37;11.03;;;;;;;;;;5048025;28;20596;-66
2023/03/24 06:11:13;;;;;;;12.30;10.13;;;;;;;;;;5041072;28;20989;-66
2023/03/24 06:13:51;;;;;;;15.85;10.18;;;;;;;;;;5039426;28;20193;-66
2023/03/24 06:16:22;;;;;;;11.50;10.23;;;;;;;;;;5037881;28;20205;-66
2023/03/24 06:18:55;;;;;;;10.83;9.93;;;;;;;;;;5034495;28;21152;-66
2023/03/24 06:21:52;;;;;;;10.00;9.05;;;;;;;;;;5030064;28;20974;-66
2023/03/24 06:24:24;;;;;;;8.65;7.78;;;;;;;;;;5038105;28;20189;-66
2023/03/24 06:27:00;;;;;;;8.60;7.80;;;;;;;;;;5049975;28;20218;-66
2023/03/24 06:29:29;;;;;;;10.75;7.85;;;;;;;;;;5041754;28;20235;-66
2023/03/24 06:31:57;;;;;;;9.30;8.35;;;;;;;;;;5033484;28;20205;-66
2023/03/24 06:34:28;;;;;;;8.38;7.57;;;;;;;;;;5038336;28;20257;-66
2023/03/24 06:37:14;;;;;;;9.30;8.40;;;;;;;;;;5057764;28;20184;-66
2023/03/24 06:39:43;;;;;;;11.63;8.30;;;;;;;;;;5055996;28;20204;-66
2023/03/24 06:42:13;;;;;;;10.30;7.75;;;;;;;;;;5057024;28;20623;-66
2023/03/24 06:44:41;;;;;;;9.60;8.80;;;;;;;;;;5058118;28;20209;-66
2023/03/24 06:47:10;;;;;;;8.80;8.00;;;;;;;;;;5054164;28;20597;-66
2023/03/24 06:49:38;;;;;;;8.98;7.53;;;;;;;;;;5060058;28;20200;-66
2023/03/24 06:52:07;;;;;;;7.70;7.10;;;;;;;;;;5058637;28;20208;-66
2023/03/24 06:54:40;;;;;;;6.87;6.27;;;;;;;;;;5059646;28;20193;-66
2023/03/24 06:57:08;;;;;;;6.90;6.20;;;;;;;;;;5050610;28;20840;-66
2023/03/24 06:59:57;;;;;;;8.55;6.72;;;;;;;;;;5051878;28;20743;-65
2023/03/24 07:02:34;;;;;;;8.20;7.40;;;;;;;;;;5049914;28;20193;-67
2023/03/24 07:05:05;;;;;;;6.85;6.03;;;;;;;;;;5061786;28;20603;-66
2023/03/24 07:07:41;;;;;;;6.45;5.90;;;;;;;;;;5068375;28;20188;-66
2023/03/24 07:10:31;;;;;;;9.97;6.47;;;;;;;;;;5049953;28;20222;-67
2023/03/24 07:13:02;;;;;;;7.10;6.40;;;;;;;;;;5044967;28;20765;-67
2023/03/24 07:15:30;;;;;;;7.25;6.72;;;;;;;;;;5038162;28;20556;-67
2023/03/24 07:17:59;;;;;;;7.13;6.63;;;;;;;;;;5046771;28;20254;-67
2023/03/24 07:20:42;;;;;;;6.10;5.60;;;;;;;;;;5035436;28;20207;-68
2023/03/24 07:23:15;;;;;;;5.77;5.37;;;;;;;;;;5031218;28;20592;-69
2023/03/24 07:25:58;;;;;;;6.90;5.30;;;;;;;;;;5047132;28;20623;-68
2023/03/24 07:28:47;;;;;;;6.07;5.57;;;;;;;;;;5050864;28;20755;-67
2023/03/24 07:31:23;;;;;;;6.17;5.60;;;;;;;;;;5044124;28;20643;-68
2023/03/24 07:33:59;;;;;;;5.33;4.97;;;;;;;;;;5038992;28;20570;-67
2023/03/24 07:36:27;;;;;;;5.10;4.80;;;;;;;;;;5039588;28;20646;-68
2023/03/24 07:38:55;;;;;;;7.83;4.57;;;;;;;;;;5042943;28;20615;-67
2023/03/24 07:41:30;;;;;;;6.22;4.90;;;;;;;;;;5043845;28;20578;-67
2023/03/24 07:44:02;;;;;;;5.37;4.30;;;;;;;;;;5043033;28;20205;-66
2023/03/24 07:46:53;;;;;;;4.60;4.30;;;;;;;;;;5033993;28;20636;-67
2023/03/24 07:49:22;;;;;;;4.77;4.40;;;;;;;;;;5033469;28;20250;-67
2023/03/24 07:52:05;;;;;;;5.13;4.72;;;;;;;;;;5049127;28;20652;-67
2023/03/24 07:54:42;;;;;;;4.33;4.03;;;;;;;;;;5050013;28;20200;-66
2023/03/24 07:57:15;;;;;;;5.27;4.77;;;;;;;;;;5049893;28;20558;-67
2023/03/24 07:59:43;;;;;;;5.38;4.40;;;;;;;;;;5053024;28;20619;-67
2023/03/24 08:02:18;;;;;;;4.90;4.50;;;;;;;;;;5052841;28;20572;-67
2023/03/24 08:05:12;;;;;;;4.07;3.80;;;;;;;;;;5047400;28;20632;-67
2023/03/24 08:07:56;;;;;;;4.53;4.22;;;;;;;;;;5028270;28;20611;-67
2023/03/24 08:10:26;;;;;;;5.17;4.70;;;;;;;;;;5038375;28;20671;-67
2023/03/24 08:12:56;;;;;;;4.72;4.25;;;;;;;;;;5042643;28;20624;-67
2023/03/24 08:15:25;;;;;;;5.57;5.13;;;;;;;;;;5051205;28;20214;-67
2023/03/24 08:17:55;;;;;;;5.93;4.63;;;;;;;;;;5049103;28;20212;-67
2023/03/24 08:20:24;;;;;;;6.40;5.10;;;;;;;;;;5040801;28;20611;-67
2023/03/24 08:22:53;;;;;;;4.70;4.40;;;;;;;;;;5045903;28;21018;-67
2023/03/24 08:25:22;;;;;;;5.43;5.03;;;;;;;;;;5037100;28;21141;-68
2023/03/24 08:27:50;;;;;;;5.73;5.23;;;;;;;;;;5049491;28;20631;-67
2023/03/24 08:30:21;;;;;;;6.60;5.77;;;;;;;;;;5037996;28;20634;-66
2023/03/24 08:32:50;;;;;;;6.50;5.25;;;;;;;;;;5036435;28;20956;-67
2023/03/24 08:35:19;;;;;;;5.70;5.20;;;;;;;;;;5035438;28;20602;-67
2023/03/24 08:37:47;;;;;;;5.90;5.37;;;;;;;;;;5035139;28;20628;-67
2023/03/24 08:40:18;;;;;;;6.47;5.87;;;;;;;;;;5046889;28;20606;-67
2023/03/24 08:42:48;;;;;;;6.17;5.53;;;;;;;;;;5048481;28;20949;-67
2023/03/24 08:45:19;;;;;;;6.80;5.57;;;;;;;;;;5040281;28;21049;-67
2023/03/24 08:47:50;;;;;;;5.70;5.25;;;;;;;;;;5038857;28;20689;-68
2023/03/24 08:50:20;;;;;;;5.13;4.73;;;;;;;;;;5033407;28;20189;-68
2023/03/24 08:52:48;;;;;;;5.65;5.25;;;;;;;;;;5033153;28;20713;-68
2023/03/24 08:55:17;;;;;;;4.97;4.53;;;;;;;;;;5039530;28;20214;-68
2023/03/24 08:57:45;;;;;;;5.90;5.40;;;;;;;;;;5040187;28;20203;-68
2023/03/24 09:00:14;;;;;;;5.07;4.60;;;;;;;;;;5041910;28;20662;-68
2023/03/24 09:02:44;;;;;;;5.50;4.93;;;;;;;;;;5047345;28;20594;-68
2023/03/24 09:05:16;;;;;;;5.90;5.40;;;;;;;;;;5053227;28;20624;-69
2023/03/24 09:07:45;;;;;;;5.83;5.27;;;;;;;;;;5052300;28;20578;-68
2023/03/24 09:10:14;;;;;;;4.90;4.50;;;;;;;;;;5052596;28;20619;-68
2023/03/24 09:12:43;;;;;;;5.13;4.40;;;;;;;;;;5053785;28;20695;-67
2023/03/24 09:15:13;;;;;;;5.50;5.10;;;;;;;;;;5053597;28;20615;-68
2023/03/24 09:17:41;;;;;;;9.07;5.93;;;;;;;;;;5043101;28;20613;-67
2023/03/24 09:20:12;;;;;;;7.33;4.83;;;;;;;;;;5051001;28;20614;-67
2023/03/24 09:22:42;;;;;;;6.47;5.03;;;;;;;;;;5048411;28;20578;-67
2023/03/24 09:25:11;;;;;;;4.73;4.20;;;;;;;;;;5045300;28;21235;-67
2023/03/24 09:27:40;;;;;;;4.70;4.13;;;;;;;;;;5042766;28;20607;-68
2023/03/24 09:30:08;;;;;;;4.77;4.37;;;;;;;;;;5042118;28;20645;-68
2023/03/24 09:32:37;;;;;;;4.30;4.00;;;;;;;;;;5037739;28;20659;-69
2023/03/24 09:35:07;;;;;;;4.27;3.97;;;;;;;;;;5042018;28;20623;-69
2023/03/24 09:37:35;;;;;;;4.97;4.57;;;;;;;;;;5038812;28;20655;-68
2023/03/24 09:40:06;;;;;;;5.93;4.30;;;;;;;;;;5049322;28;20599;-68
2023/03/24 09:42:36;;;;;;;6.17;5.60;;;;;;;;;;5046527;28;20578;-68
2023/03/24 09:45:06;;;;;;;6.20;5.60;;;;;;;;;;5039228;28;20654;-67
2023/03/24 09:47:37;;;;;;;9.03;6.10;;;;;;;;;;5044299;28;20638;-67
2023/03/24 09:50:08;;;;;;;6.70;6.10;;;;;;;;;;5034052;28;20650;-68
2023/03/24 09:52:37;;;;;;;7.53;6.82;;;;;;;;;;5052099;28;20215;-68
2023/03/24 09:55:13;;;;;;;9.10;7.70;;;;;;;;;;5041669;28;20197;-68
2023/03/24 09:57:42;;;;;;;9.43;8.02;;;;;;;;;;5031595;28;20563;-68
2023/03/24 10:00:17;;;;;;;12.85;8.93;;;;;;;;;;5033471;28;20554;-68
2023/03/24 10:02:45;;;;;;;9.85;8.35;;;;;;;;;;5031996;28;20672;-69
2023/03/24 10:05:14;;;;;;;8.05;7.35;;;;;;;;;;5035590;28;20201;-66
2023/03/24 10:07:47;;;;;;;9.57;7.57;;;;;;;;;;5047820;28;20200;-66
2023/03/24 10:10:20;;;;;;;9.37;8.57;;;;;;;;;;5042338;28;20583;-66
2023/03/24 10:12:49;;;;;;;13.27;8.20;;;;;;;;;;5040310;28;20618;-66
2023/03/24 10:15:21;;;;;;;8.60;7.90;;;;;;;;;;5048345;28;20211;-67
2023/03/24 10:17:55;;;;;;;9.73;8.93;;;;;;;;;;5032604;28;20570;-67
2023/03/24 10:20:27;;;;;;;10.20;8.20;;;;;;;;;;5033207;28;21123;-67
2023/03/24 10:23:00;;;;;;;9.63;8.83;;;;;;;;;;5042533;28;21104;-67
2023/03/24 10:25:36;;;;;;;11.00;10.00;;;;;;;;;;5031598;28;20570;-69
2023/03/24 10:28:08;;;;;;;10.80;9.80;;;;;;;;;;5031302;28;20578;-68
2023/03/24 10:30:41;;;;;;;12.70;9.50;;;;;;;;;;5031996;28;20636;-68
2023/03/24 10:33:10;;;;;;;9.20;8.30;;;;;;;;;;5032055;28;20778;-68
2023/03/24 10:35:40;;;;;;;9.40;8.50;;;;;;;;;;5031954;28;20604;-68
2023/03/24 10:38:14;;;;;;;10.13;8.20;;;;;;;;;;5036188;28;20599;-68
2023/03/24 10:40:44;;;;;;;7.97;6.97;;;;;;;;;;5050836;28;21171;-68
2023/03/24 10:43:13;;;;;;;7.20;6.60;;;;;;;;;;5053775;28;20574;-67
2023/03/24 10:45:43;;;;;;;7.80;7.00;;;;;;;;;;5052352;28;20246;-65
2023/03/24 10:48:13;;;;;;;8.07;7.03;;;;;;;;;;5049867;28;20619;-67
2023/03/24 10:50:42;;;;;;;7.20;6.50;;;;;;;;;;5054161;28;20977;-66
2023/03/24 10:53:17;;;;;;;9.10;6.80;;;;;;;;;;5044791;28;20649;-66
2023/03/24 10:55:47;;;;;;;5.87;5.47;;;;;;;;;;5031817;28;21197;-68
2023/03/24 10:58:18;;;;;;;5.93;5.30;;;;;;;;;;5031589;28;20928;-67
2023/03/24 11:00:47;;;;;;;5.97;5.57;;;;;;;;;;5031738;28;20584;-68
2023/03/24 11:03:17;;;;;;;5.63;5.13;;;;;;;;;;5031160;28;20583;-68
2023/03/24 11:05:45;;;;;;;5.27;4.83;;;;;;;;;;5031982;28;20587;-67
2023/03/24 11:08:25;;;;;;;4.43;4.00;;;;;;;;;;5040655;28;20598;-67
2023/03/24 11:10:55;;;;;;;5.93;4.50;;;;;;;;;;5051656;28;20579;-68
2023/03/24 11:13:28;;;;;;;4.33;3.90;;;;;;;;;;5044225;28;20641;-68
2023/03/24 11:15:58;;;;;;;5.10;4.70;;;;;;;;;;5056990;28;20570;-67
2023/03/24 11:18:26;;;;;;;1.70;1.60;;;;;;;;;;5050751;28;20699;-68
2023/03/24 11:20:59;;;;;;;2.80;1.50;;;;;;;;;;5032396;28;20606;-68
2023/03/24 11:23:30;;;;;;;1.58;1.48;;;;;;;;;;5047962;28;20594;-68
2023/03/24 11:26:10;;;;;;;3.33;1.45;;;;;;;;;;5051468;28;20189;-68
2023/03/24 11:28:40;;;;;;;2.15;1.95;;;;;;;;;;5054308;28;20265;-68
2023/03/24 11:31:10;;;;;;;2.15;1.42;;;;;;;;;;5055271;28;20197;-68
2023/03/24 11:33:44;;;;;;;2.38;1.52;;;;;;;;;;5055877;28;20219;-68
2023/03/24 11:36:32;;;;;;;3.50;2.10;;;;;;;;;;5060886;28;20192;-68
2023/03/24 11:39:01;;;;;;;1.60;1.50;;;;;;;;;;5050063;28;20659;-67
2023/03/24 11:41:31;;;;;;;2.33;1.40;;;;;;;;;;5065258;28;20195;-68
2023/03/24 11:44:13;;;;;;;2.45;1.10;;;;;;;;;;5065299;28;20203;-67
2023/03/24 11:46:42;;;;;;;1.80;1.33;;;;;;;;;;5056497;28;20220;-67
2023/03/24 11:49:13;;;;;;;4.30;1.70;;;;;;;;;;5058820;28;20194;-67
2023/03/24 11:51:43;;;;;;;2.55;1.80;;;;;;;;;;5060085;28;20193;-67
2023/03/24 11:54:13;;;;;;;5.72;1.73;;;;;;;;;;5045413;28;20684;-67
2023/03/24 11:56:44;;;;;;;1.43;1.33;;;;;;;;;;5043030;28;20190;-67
2023/03/24 11:59:18;;;;;;;3.13;1.80;;;;;;;;;;5039563;28;20593;-67
2023/03/24 12:01:51;;;;;;;1.50;1.40;;;;;;;;;;5052035;28;20235;-67
2023/03/24 12:04:29;;;;;;;5.00;1.60;;;;;;;;;;5057000;28;20200;-67
2023/03/24 12:07:06;;;;;;;1.92;1.77;;;;;;;;;;5053742;28;20670;-66
2023/03/24 12:09:38;;;;;;;2.60;1.30;;;;;;;;;;5049738;28;20192;-67
2023/03/24 12:12:16;;;;;;;5.07;1.40;;;;;;;;;;5034902;28;20653;-66
2023/03/24 12:14:51;;;;;;;1.80;1.47;;;;;;;;;;5056082;28;20192;-67
2023/03/24 12:17:22;;;;;;;3.57;1.67;;;;;;;;;;5050545;28;20664;-68
2023/03/24 12:20:05;;;;;;;1.90;1.40;;;;;;;;;;5042759;28;21042;-66
2023/03/24 12:22:41;;;;;;;2.90;1.40;;;;;;;;;;5043082;28;20705;-67
2023/03/24 12:25:21;;;;;;;1.97;1.10;;;;;;;;;;5033495;28;20701;-66
2023/03/24 12:27:54;;;;;;;2.40;1.13;;;;;;;;;;5036831;28;20650;-67
2023/03/24 12:30:27;;;;;;;2.13;1.57;;;;;;;;;;5038827;28;20625;-67
2023/03/24 12:33:00;;;;;;;2.90;1.30;;;;;;;;;;5041290;28;20643;-67
2023/03/24 12:35:52;;;;;;;3.13;1.53;;;;;;;;;;5044200;28;20606;-67
2023/03/24 12:38:26;;;;;;;2.40;1.30;;;;;;;;;;5038486;28;20601;-66
2023/03/24 12:41:09;;;;;;;1.67;1.33;;;;;;;;;;5042658;28;20578;-67
2023/03/24 12:43:43;;;;;;;10.77;1.70;;;;;;;;;;5038099;28;21006;-67
2023/03/24 12:46:20;;;;;;;2.13;1.20;;;;;;;;;;5042621;28;20791;-68
2023/03/24 12:48:57;;;;;;;4.57;1.47;;;;;;;;;;5043305;28;20600;-68
2023/03/24 12:51:31;;;;;;;5.07;1.60;;;;;;;;;;5045358;28;20621;-68
2023/03/24 12:54:06;;;;;;;2.47;1.37;;;;;;;;;;5045324;28;20656;-68
2023/03/24 12:56:36;;;;;;;3.30;1.20;;;;;;;;;;5047613;28;20993;-67
2023/03/24 12:59:10;;;;;;;3.17;1.20;;;;;;;;;;5059248;28;21095;-67
2023/03/24 13:01:40;;;;;;;2.17;1.30;;;;;;;;;;5060474;28;20589;-67
2023/03/24 13:04:10;;;;;;;3.57;1.33;;;;;;;;;;5063404;28;20629;-67
2023/03/24 13:06:41;;;;;;;1.97;1.80;;;;;;;;;;5064688;28;20951;-67
2023/03/24 13:09:14;;;;;;;1.40;1.23;;;;;;;;;;5063599;28;20641;-67
2023/03/24 13:11:46;;;;;;;2.20;1.30;;;;;;;;;;5038922;28;20630;-67
2023/03/24 13:14:19;;;;;;;2.70;2.20;;;;;;;;;;5062862;28;20639;-70
2023/03/24 13:16:48;;;;;;;2.00;1.80;;;;;;;;;;5061137;28;20626;-70
2023/03/24 13:19:18;;;;;;;8.23;2.20;;;;;;;;;;5063693;28;20634;-70
2023/03/24 13:21:47;;;;;;;3.67;2.40;;;;;;;;;;5059609;28;20639;-70
2023/03/24 13:24:16;;;;;;;7.10;2.47;;;;;;;;;;5062276;28;21225;-70
2023/03/24 13:26:48;;;;;;;4.70;3.20;;;;;;;;;;5065964;28;20635;-70
2023/03/24 13:29:23;;;;;;;2.73;2.53;;;;;;;;;;5064207;28;20650;-70
2023/03/24 13:31:53;;;;;;;4.70;3.00;;;;;;;;;;5060374;28;20937;-70
2023/03/24 13:34:24;;;;;;;5.80;3.30;;;;;;;;;;5054204;28;20730;-70
2023/03/24 13:36:56;;;;;;;4.20;3.50;;;;;;;;;;5062389;28;20609;-70
2023/03/24 13:39:26;;;;;;;4.60;3.27;;;;;;;;;;5052877;28;20603;-70
2023/03/24 13:41:56;;;;;;;7.90;3.30;;;;;;;;;;5061101;28;20629;-70
2023/03/24 13:44:27;;;;;;;3.67;2.83;;;;;;;;;;5059289;28;21034;-69
2023/03/24 13:47:06;;;;;;;4.03;3.17;;;;;;;;;;5058801;28;21146;-70
2023/03/24 13:49:34;;;;;;;6.53;3.80;;;;;;;;;;5059457;28;20609;-70
2023/03/24 13:52:05;;;;;;;3.87;3.57;;;;;;;;;;5056966;28;20626;-71
2023/03/24 13:54:36;;;;;;;8.20;3.87;;;;;;;;;;5059246;28;21057;-70
2023/03/24 13:57:06;;;;;;;4.87;4.47;;;;;;;;;;5063752;28;20602;-70
2023/03/24 13:59:40;;;;;;;3.90;3.60;;;;;;;;;;5059826;28;20957;-70
2023/03/24 14:02:22;;;;;;;4.53;3.60;;;;;;;;;;5061702;28;20606;-70
2023/03/24 14:04:51;;;;;;;4.80;4.13;;;;;;;;;;5060663;28;20587;-70
2023/03/24 14:07:43;;;;;;;8.07;4.33;;;;;;;;;;5052922;28;20634;-70
2023/03/24 14:10:30;;;;;;;5.00;4.50;;;;;;;;;;5032930;28;20623;-71
2023/03/24 14:13:02;;;;;;;6.90;3.50;;;;;;;;;;5039333;28;20670;-71
2023/03/24 14:15:32;;;;;;;4.10;3.80;;;;;;;;;;5037387;28;20598;-71
2023/03/24 14:18:15;;;;;;;9.03;3.10;;;;;;;;;;5042005;28;20607;-71
2023/03/24 14:20:59;;;;;;;5.90;3.17;;;;;;;;;;5057453;28;20570;-71
2023/03/24 14:23:32;;;;;;;3.80;3.50;;;;;;;;;;5059994;28;20607;-71
2023/03/24 14:26:01;;;;;;;4.50;3.20;;;;;;;;;;5059026;28;20635;-71
2023/03/24 14:28:31;;;;;;;5.93;4.40;;;;;;;;;;5068914;28;20618;-71
2023/03/24 14:31:11;;;;;;;3.37;3.17;;;;;;;;;;5045578;28;20948;-71
2023/03/24 14:33:40;;;;;;;3.80;3.50;;;;;;;;;;5052127;28;20646;-70
2023/03/24 14:36:13;;;;;;;3.27;3.10;;;;;;;;;;5048310;28;20618;-69
2023/03/24 14:38:42;;;;;;;3.90;3.63;;;;;;;;;;5036784;28;20615;-69
2023/03/24 14:41:14;;;;;;;3.47;3.10;;;;;;;;;;5049908;28;20600;-69
2023/03/24 14:43:54;;;;;;;3.30;3.00;;;;;;;;;;5052918;28;20605;-70
2023/03/24 14:46:37;;;;;;;4.83;3.50;;;;;;;;;;5051296;28;20632;-70
2023/03/24 14:49:08;;;;;;;5.73;3.17;;;;;;;;;;5052128;28;20578;-70
2023/03/24 14:51:38;;;;;;;4.73;4.33;;;;;;;;;;5048722;28;20600;-70
2023/03/24 14:54:08;;;;;;;4.50;2.93;;;;;;;;;;5037455;28;20618;-70
2023/03/24 14:56:38;;;;;;;3.00;2.63;;;;;;;;;;5032915;28;21242;-70
2023/03/24 14:59:09;;;;;;;7.63;3.70;;;;;;;;;;5032981;28;20577;-70
2023/03/24 15:01:44;;;;;;;3.50;3.17;;;;;;;;;;5031925;28;21174;-70
2023/03/24 15:04:12;;;;;;;7.73;3.70;;;;;;;;;;5032471;28;20868;-70
2023/03/24 15:06:45;;;;;;;4.10;3.70;;;;;;;;;;5031678;28;20616;-70
2023/03/24 15:09:15;;;;;;;4.20;3.90;;;;;;;;;;5033093;28;20603;-70
2023/03/24 15:11:43;;;;;;;3.20;2.97;;;;;;;;;;5032775;28;20593;-70
2023/03/24 15:14:19;;;;;;;3.20;3.00;;;;;;;;;;5033507;28;21009;-70
2023/03/24 15:16:54;;;;;;;3.57;3.20;;;;;;;;;;5032982;28;20598;-70